sensor_id;sensor_type;location;lat;lon;timestamp;pressure;altitude;pressure_sealevel;temperature;humidity
49216;BME280;45943;53.148;8.204;2023-03-23T00:01:21;100265.66;;;13.61;100.00
49216;BME280;45943;53.148;8.204;2023-03-23T00:03:49;100264.38;;;13.47;100.00
49216;BME280;45943;53.148;8.204;2023-03-23T00:06:16;100264.31;;;13.39;100.00
49216;BME280;45943;53.148;8.204;2023-03-23T00:08:44;100262.38;;;13.49;100.00
49216;BME280;45943;53.148;8.204;2023-03-23T00:11:13;100254.97;;;13.51;100.00
49216;BME280;45943;53.148;8.204;2023-03-23T00:13:44;100250.22;;;13.45;100.00
49216;BME280;45943;53.148;8.204;2023-03-23T00:16:16;100240.06;;;13.65;100.00
49216;BME280;45943;53.148;8.204;2023-03-23T00:18:48;100245.63;;;13.63;100.00
49216;BME280;45943;53.148;8.204;2023-03-23T00:21:18;100230.69;;;13.69;100.00
49216;BME280;45943;53.148;8.204;2023-03-23T00:23:45;100228.25;;;13.58;100.00
49216;BME280;45943;53.148;8.204;2023-03-23T00:26:11;100230.13;;;13.57;100.00
49216;BME280;45943;53.148;8.204;2023-03-23T00:28:37;100218.31;;;13.58;100.00
49216;BME280;45943;53.148;8.204;2023-03-23T00:31:05;100219.75;;;13.70;100.00
49216;BME280;45943;53.148;8.204;2023-03-23T00:33:34;100219.16;;;13.59;100.00
49216;BME280;45943;53.148;8.204;2023-03-23T00:36:10;100212.78;;;13.60;100.00
49216;BME280;45943;53.148;8.204;2023-03-23T00:38:37;100202.78;;;13.52;100.00
49216;BME280;45943;53.148;8.204;2023-03-23T00:41:04;100215.38;;;13.69;100.00
49216;BME280;45943;53.148;8.204;2023-03-23T00:43:31;100203.06;;;13.67;100.00
49216;BME280;45943;53.148;8.204;2023-03-23T00:46:01;100199.38;;;13.76;100.00
49216;BME280;45943;53.148;8.204;2023-03-23T00:48:36;100200.94;;;13.53;100.00
49216;BME280;45943;53.148;8.204;2023-03-23T00:51:10;100202.72;;;13.70;100.00
49216;BME280;45943;53.148;8.204;2023-03-23T00:53:40;100200.72;;;13.72;100.00
49216;BME280;45943;53.148;8.204;2023-03-23T00:56:07;100192.47;;;13.73;100.00
49216;BME280;45943;53.148;8.204;2023-03-23T00:58:33;100196.34;;;13.71;100.00
49216;BME280;45943;53.148;8.204;2023-03-23T01:01:00;100187.50;;;13.61;100.00
49216;BME280;45943;53.148;8.204;2023-03-23T01:03:26;100179.78;;;13.66;100.00
49216;BME280;45943;53.148;8.204;2023-03-23T01:05:53;100184.59;;;13.80;100.00
49216;BME280;45943;53.148;8.204;2023-03-23T01:08:20;100182.22;;;13.77;100.00
49216;BME280;45943;53.148;8.204;2023-03-23T01:10:48;100179.94;;;13.64;100.00
49216;BME280;45943;53.148;8.204;2023-03-23T01:13:15;100176.47;;;13.72;100.00
49216;BME280;45943;53.148;8.204;2023-03-23T01:15:41;100183.09;;;13.86;100.00
49216;BME280;45943;53.148;8.204;2023-03-23T01:18:08;100168.25;;;13.82;100.00
49216;BME280;45943;53.148;8.204;2023-03-23T01:20:36;100183.25;;;13.84;100.00
49216;BME280;45943;53.148;8.204;2023-03-23T01:23:02;100180.28;;;13.95;100.00
49216;BME280;45943;53.148;8.204;2023-03-23T01:25:30;100184.56;;;14.06;100.00
49216;BME280;45943;53.148;8.204;2023-03-23T01:27:57;100175.13;;;13.76;100.00
49216;BME280;45943;53.148;8.204;2023-03-23T01:30:23;100186.56;;;14.04;100.00
49216;BME280;45943;53.148;8.204;2023-03-23T01:32:50;100175.09;;;14.02;100.00
49216;BME280;45943;53.148;8.204;2023-03-23T01:35:17;100172.91;;;14.05;100.00
49216;BME280;45943;53.148;8.204;2023-03-23T01:37:43;100171.94;;;14.15;100.00
49216;BME280;45943;53.148;8.204;2023-03-23T01:40:10;100167.19;;;14.09;100.00
49216;BME280;45943;53.148;8.204;2023-03-23T01:42:37;100162.81;;;14.16;100.00
49216;BME280;45943;53.148;8.204;2023-03-23T01:45:22;100157.59;;;14.06;100.00
49216;BME280;45943;53.148;8.204;2023-03-23T01:48:01;100169.25;;;14.23;100.00
49216;BME280;45943;53.148;8.204;2023-03-23T01:50:33;100156.09;;;14.12;100.00
49216;BME280;45943;53.148;8.204;2023-03-23T01:53:06;100151.66;;;14.02;100.00
49216;BME280;45943;53.148;8.204;2023-03-23T01:55:36;100143.94;;;14.07;100.00
49216;BME280;45943;53.148;8.204;2023-03-23T01:58:06;100128.63;;;14.16;100.00
49216;BME280;45943;53.148;8.204;2023-03-23T02:00:33;100109.38;;;14.11;100.00
49216;BME280;45943;53.148;8.204;2023-03-23T02:03:00;100097.59;;;14.12;100.00
49216;BME280;45943;53.148;8.204;2023-03-23T02:05:30;100110.94;;;13.71;100.00
49216;BME280;45943;53.148;8.204;2023-03-23T02:07:59;100089.94;;;13.91;100.00
49216;BME280;45943;53.148;8.204;2023-03-23T02:10:29;100102.59;;;13.91;100.00
49216;BME280;45943;53.148;8.204;2023-03-23T02:12:57;100094.53;;;13.99;100.00
49216;BME280;45943;53.148;8.204;2023-03-23T02:15:25;100093.38;;;14.10;100.00
49216;BME280;45943;53.148;8.204;2023-03-23T02:18:03;100081.56;;;14.02;100.00
49216;BME280;45943;53.148;8.204;2023-03-23T02:20:48;100071.97;;;14.08;100.00
49216;BME280;45943;53.148;8.204;2023-03-23T02:32:16;100102.06;;;13.95;100.00
49216;BME280;45943;53.148;8.204;2023-03-23T02:34:59;100100.16;;;13.71;100.00
49216;BME280;45943;53.148;8.204;2023-03-23T02:37:35;100082.22;;;14.04;100.00
49216;BME280;45943;53.148;8.204;2023-03-23T02:40:13;100081.09;;;13.73;100.00
49216;BME280;45943;53.148;8.204;2023-03-23T02:42:45;100075.81;;;13.97;100.00
49216;BME280;45943;53.148;8.204;2023-03-23T02:45:17;100081.53;;;13.94;100.00
49216;BME280;45943;53.148;8.204;2023-03-23T02:47:46;100070.41;;;14.05;100.00
49216;BME280;45943;53.148;8.204;2023-03-23T02:50:15;100090.25;;;13.80;100.00
49216;BME280;45943;53.148;8.204;2023-03-23T02:52:44;100077.69;;;13.97;100.00
49216;BME280;45943;53.148;8.204;2023-03-23T02:55:13;100081.84;;;13.91;100.00
49216;BME280;45943;53.148;8.204;2023-03-23T02:57:41;100087.25;;;13.91;100.00
49216;BME280;45943;53.148;8.204;2023-03-23T03:00:13;100057.97;;;13.96;100.00
49216;BME280;45943;53.148;8.204;2023-03-23T03:02:59;100058.78;;;14.05;100.00
49216;BME280;45943;53.148;8.204;2023-03-23T03:10:50;100061.34;;;14.15;100.00
49216;BME280;45943;53.148;8.204;2023-03-23T03:16:16;100045.34;;;14.21;100.00
49216;BME280;45943;53.148;8.204;2023-03-23T03:18:57;100025.75;;;14.03;100.00
49216;BME280;45943;53.148;8.204;2023-03-23T03:21:31;100032.66;;;13.89;100.00
49216;BME280;45943;53.148;8.204;2023-03-23T03:24:02;100030.69;;;14.07;100.00
49216;BME280;45943;53.148;8.204;2023-03-23T03:26:33;100048.50;;;13.92;100.00
49216;BME280;45943;53.148;8.204;2023-03-23T03:29:00;100038.41;;;14.02;100.00
49216;BME280;45943;53.148;8.204;2023-03-23T03:31:35;100050.69;;;14.05;100.00
49216;BME280;45943;53.148;8.204;2023-03-23T03:34:04;100050.06;;;14.11;100.00
49216;BME280;45943;53.148;8.204;2023-03-23T03:36:32;100048.03;;;14.13;100.00
49216;BME280;45943;53.148;8.204;2023-03-23T03:39:03;100041.28;;;14.09;100.00
49216;BME280;45943;53.148;8.204;2023-03-23T03:41:36;100038.59;;;14.09;100.00
49216;BME280;45943;53.148;8.204;2023-03-23T03:44:03;100047.72;;;14.16;100.00
49216;BME280;45943;53.148;8.204;2023-03-23T03:46:30;100044.66;;;14.11;100.00
49216;BME280;45943;53.148;8.204;2023-03-23T03:48:57;100049.38;;;14.01;100.00
49216;BME280;45943;53.148;8.204;2023-03-23T03:51:25;100038.59;;;14.09;100.00
49216;BME280;45943;53.148;8.204;2023-03-23T03:53:52;100041.13;;;14.11;100.00
49216;BME280;45943;53.148;8.204;2023-03-23T03:56:18;100044.50;;;14.21;100.00
49216;BME280;45943;53.148;8.204;2023-03-23T03:58:45;100050.22;;;14.10;100.00
49216;BME280;45943;53.148;8.204;2023-03-23T04:01:14;100049.91;;;14.21;100.00
49216;BME280;45943;53.148;8.204;2023-03-23T04:03:41;100046.00;;;13.99;100.00
49216;BME280;45943;53.148;8.204;2023-03-23T04:06:08;100041.13;;;14.11;100.00
49216;BME280;45943;53.148;8.204;2023-03-23T04:08:35;100040.94;;;14.12;100.00
49216;BME280;45943;53.148;8.204;2023-03-23T04:11:09;100048.00;;;14.05;100.00
49216;BME280;45943;53.148;8.204;2023-03-23T04:13:37;100037.75;;;14.09;100.00
49216;BME280;45943;53.148;8.204;2023-03-23T04:16:04;100053.88;;;13.92;100.00
49216;BME280;45943;53.148;8.204;2023-03-23T04:18:30;100047.34;;;14.03;100.00
49216;BME280;45943;53.148;8.204;2023-03-23T04:20:58;100041.59;;;13.98;100.00
49216;BME280;45943;53.148;8.204;2023-03-23T04:23:27;100039.38;;;13.93;100.00
49216;BME280;45943;53.148;8.204;2023-03-23T04:25:55;100040.03;;;13.79;100.00
49216;BME280;45943;53.148;8.204;2023-03-23T04:28:23;100026.91;;;13.92;100.00
49216;BME280;45943;53.148;8.204;2023-03-23T04:30:50;100032.19;;;14.10;100.00
49216;BME280;45943;53.148;8.204;2023-03-23T04:33:23;100024.41;;;13.99;100.00
49216;BME280;45943;53.148;8.204;2023-03-23T04:35:52;100027.28;;;14.05;100.00
49216;BME280;45943;53.148;8.204;2023-03-23T04:38:19;100036.38;;;13.88;100.00
49216;BME280;45943;53.148;8.204;2023-03-23T04:40:47;100032.97;;;13.78;100.00
49216;BME280;45943;53.148;8.204;2023-03-23T04:43:17;100019.34;;;13.88;100.00
49216;BME280;45943;53.148;8.204;2023-03-23T04:45:47;100026.06;;;13.92;100.00
49216;BME280;45943;53.148;8.204;2023-03-23T04:48:25;100030.97;;;14.04;100.00
49216;BME280;45943;53.148;8.204;2023-03-23T04:50:52;100028.78;;;13.92;100.00
49216;BME280;45943;53.148;8.204;2023-03-23T04:53:18;100027.44;;;14.04;100.00
49216;BME280;45943;53.148;8.204;2023-03-23T04:55:45;100024.03;;;13.86;100.00
49216;BME280;45943;53.148;8.204;2023-03-23T04:58:13;100026.59;;;14.03;100.00
49216;BME280;45943;53.148;8.204;2023-03-23T05:00:40;100020.38;;;14.03;100.00
49216;BME280;45943;53.148;8.204;2023-03-23T05:03:09;100014.13;;;14.02;100.00
49216;BME280;45943;53.148;8.204;2023-03-23T05:05:36;100018.84;;;14.00;100.00
49216;BME280;45943;53.148;8.204;2023-03-23T05:08:02;100016.16;;;14.00;100.00
49216;BME280;45943;53.148;8.204;2023-03-23T05:10:29;100021.59;;;14.17;100.00
49216;BME280;45943;53.148;8.204;2023-03-23T05:12:55;100020.19;;;14.04;100.00
49216;BME280;45943;53.148;8.204;2023-03-23T05:15:21;100009.06;;;13.91;100.00
49216;BME280;45943;53.148;8.204;2023-03-23T05:17:47;100000.47;;;13.96;100.00
49216;BME280;45943;53.148;8.204;2023-03-23T05:20:15;99995.25;;;13.94;100.00
49216;BME280;45943;53.148;8.204;2023-03-23T05:22:48;100007.56;;;13.97;100.00
49216;BME280;45943;53.148;8.204;2023-03-23T05:25:15;99996.78;;;14.05;100.00
49216;BME280;45943;53.148;8.204;2023-03-23T05:27:44;99996.91;;;13.79;100.00
49216;BME280;45943;53.148;8.204;2023-03-23T05:30:14;100002.69;;;14.00;100.00
49216;BME280;45943;53.148;8.204;2023-03-23T05:32:43;99999.97;;;13.92;100.00
49216;BME280;45943;53.148;8.204;2023-03-23T05:35:10;100010.63;;;14.10;100.00
49216;BME280;45943;53.148;8.204;2023-03-23T05:37:37;100003.38;;;14.19;100.00
49216;BME280;45943;53.148;8.204;2023-03-23T05:40:04;99998.63;;;14.04;100.00
49216;BME280;45943;53.148;8.204;2023-03-23T05:42:32;99994.91;;;13.89;100.00
49216;BME280;45943;53.148;8.204;2023-03-23T05:45:00;99995.06;;;13.96;100.00
49216;BME280;45943;53.148;8.204;2023-03-23T05:47:27;99999.78;;;13.94;100.00
49216;BME280;45943;53.148;8.204;2023-03-23T05:49:53;100012.28;;;14.03;100.00
49216;BME280;45943;53.148;8.204;2023-03-23T05:52:19;100008.72;;;13.94;100.00
49216;BME280;45943;53.148;8.204;2023-03-23T05:54:46;99995.75;;;13.90;100.00
49216;BME280;45943;53.148;8.204;2023-03-23T05:57:12;100006.91;;;14.11;100.00
49216;BME280;45943;53.148;8.204;2023-03-23T05:59:38;100014.31;;;14.01;100.00
49216;BME280;45943;53.148;8.204;2023-03-23T06:02:04;100016.84;;;14.11;100.00
49216;BME280;45943;53.148;8.204;2023-03-23T06:04:31;100015.16;;;14.10;100.00
49216;BME280;45943;53.148;8.204;2023-03-23T06:07:02;100020.59;;;14.26;100.00
49216;BME280;45943;53.148;8.204;2023-03-23T06:09:28;100023.28;;;14.26;100.00
49216;BME280;45943;53.148;8.204;2023-03-23T06:11:54;100018.38;;;14.13;100.00
49216;BME280;45943;53.148;8.204;2023-03-23T06:14:20;100020.19;;;14.04;100.00
49216;BME280;45943;53.148;8.204;2023-03-23T06:16:46;100023.44;;;14.16;100.00
49216;BME280;45943;53.148;8.204;2023-03-23T06:19:13;100030.00;;;14.22;100.00
49216;BME280;45943;53.148;8.204;2023-03-23T06:21:41;100034.75;;;14.36;100.00
49216;BME280;45943;53.148;8.204;2023-03-23T06:24:08;100043.31;;;14.15;100.00
49216;BME280;45943;53.148;8.204;2023-03-23T06:26:38;100044.19;;;14.32;100.00
49216;BME280;45943;53.148;8.204;2023-03-23T06:29:06;100057.00;;;14.38;100.00
49216;BME280;45943;53.148;8.204;2023-03-23T06:31:40;100057.50;;;14.42;100.00
49216;BME280;45943;53.148;8.204;2023-03-23T06:34:10;100063.59;;;14.35;100.00
49216;BME280;45943;53.148;8.204;2023-03-23T06:36:37;100066.78;;;14.39;100.00
49216;BME280;45943;53.148;8.204;2023-03-23T06:39:04;100070.16;;;14.33;100.00
49216;BME280;45943;53.148;8.204;2023-03-23T06:41:31;100080.47;;;14.38;100.00
49216;BME280;45943;53.148;8.204;2023-03-23T06:43:58;100104.75;;;14.38;100.00
49216;BME280;45943;53.148;8.204;2023-03-23T06:46:25;100122.59;;;14.30;100.00
49216;BME280;45943;53.148;8.204;2023-03-23T06:48:52;100125.41;;;14.13;100.00
49216;BME280;45943;53.148;8.204;2023-03-23T06:51:19;100116.44;;;14.04;100.00
49216;BME280;45943;53.148;8.204;2023-03-23T06:53:45;100118.31;;;14.12;100.00
49216;BME280;45943;53.148;8.204;2023-03-23T06:56:11;100123.19;;;14.00;100.00
49216;BME280;45943;53.148;8.204;2023-03-23T06:58:38;100114.75;;;14.03;100.00
49216;BME280;45943;53.148;8.204;2023-03-23T07:01:05;100112.03;;;13.95;100.00
49216;BME280;45943;53.148;8.204;2023-03-23T07:03:32;100120.56;;;13.82;100.00
49216;BME280;45943;53.148;8.204;2023-03-23T07:05:58;100113.19;;;13.92;100.00
49216;BME280;45943;53.148;8.204;2023-03-23T07:08:25;100117.75;;;13.92;100.00
49216;BME280;45943;53.148;8.204;2023-03-23T07:10:52;100116.41;;;13.96;100.00
49216;BME280;45943;53.148;8.204;2023-03-23T07:13:19;100110.16;;;13.95;100.00
49216;BME280;45943;53.148;8.204;2023-03-23T07:15:46;100111.84;;;13.88;100.00
49216;BME280;45943;53.148;8.204;2023-03-23T07:18:12;100114.66;;;13.78;100.00
49216;BME280;45943;53.148;8.204;2023-03-23T07:20:38;100115.63;;;13.69;100.00
49216;BME280;45943;53.148;8.204;2023-03-23T07:23:04;100109.44;;;13.77;100.00
49216;BME280;45943;53.148;8.204;2023-03-23T07:25:34;100117.41;;;13.87;100.00
49216;BME280;45943;53.148;8.204;2023-03-23T07:28:01;100137.09;;;13.79;100.00
49216;BME280;45943;53.148;8.204;2023-03-23T07:30:28;100118.22;;;13.79;100.00
49216;BME280;45943;53.148;8.204;2023-03-23T07:32:55;100133.13;;;13.65;100.00
49216;BME280;45943;53.148;8.204;2023-03-23T07:35:22;100133.59;;;13.87;100.00
49216;BME280;45943;53.148;8.204;2023-03-23T07:37:49;100141.84;;;13.93;100.00
49216;BME280;45943;53.148;8.204;2023-03-23T07:40:17;100138.69;;;13.98;100.00
49216;BME280;45943;53.148;8.204;2023-03-23T07:42:45;100131.47;;;14.06;100.00
49216;BME280;45943;53.148;8.204;2023-03-23T07:45:16;100138.72;;;14.14;100.00
49216;BME280;45943;53.148;8.204;2023-03-23T07:47:42;100146.09;;;14.04;100.00
49216;BME280;45943;53.148;8.204;2023-03-23T07:50:08;100140.06;;;14.10;100.00
49216;BME280;45943;53.148;8.204;2023-03-23T07:52:35;100155.38;;;14.01;100.00
49216;BME280;45943;53.148;8.204;2023-03-23T07:55:02;100148.63;;;13.97;100.00
49216;BME280;45943;53.148;8.204;2023-03-23T07:57:30;100159.41;;;13.97;100.00
49216;BME280;45943;53.148;8.204;2023-03-23T07:59:56;100152.72;;;14.10;100.00
49216;BME280;45943;53.148;8.204;2023-03-23T08:02:23;100147.34;;;14.18;100.00
49216;BME280;45943;53.148;8.204;2023-03-23T08:04:49;100161.84;;;14.25;100.00
49216;BME280;45943;53.148;8.204;2023-03-23T08:07:16;100160.88;;;14.26;100.00
49216;BME280;45943;53.148;8.204;2023-03-23T08:09:45;100165.94;;;14.29;100.00
49216;BME280;45943;53.148;8.204;2023-03-23T08:12:13;100168.25;;;14.24;100.00
49216;BME280;45943;53.148;8.204;2023-03-23T08:14:39;100170.78;;;14.25;100.00
49216;BME280;45943;53.148;8.204;2023-03-23T08:17:07;100170.34;;;14.38;100.00
49216;BME280;45943;53.148;8.204;2023-03-23T08:19:35;100167.09;;;14.34;100.00
49216;BME280;45943;53.148;8.204;2023-03-23T08:22:03;100176.78;;;14.45;100.00
49216;BME280;45943;53.148;8.204;2023-03-23T08:24:30;100184.88;;;14.45;100.00
49216;BME280;45943;53.148;8.204;2023-03-23T08:26:56;100187.13;;;14.24;100.00
49216;BME280;45943;53.148;8.204;2023-03-23T08:29:22;100185.34;;;14.41;100.00
49216;BME280;45943;53.148;8.204;2023-03-23T08:31:48;100188.03;;;14.41;100.00
49216;BME280;45943;53.148;8.204;2023-03-23T08:34:15;100187.09;;;14.50;100.00
49216;BME280;45943;53.148;8.204;2023-03-23T08:36:41;100181.19;;;14.54;100.00
49216;BME280;45943;53.148;8.204;2023-03-23T08:39:10;100193.03;;;14.61;100.00
49216;BME280;45943;53.148;8.204;2023-03-23T08:41:36;100191.34;;;14.69;100.00
49216;BME280;45943;53.148;8.204;2023-03-23T08:44:02;100188.31;;;14.55;100.00
49216;BME280;45943;53.148;8.204;2023-03-23T08:46:30;100188.81;;;14.67;100.00
49216;BME280;45943;53.148;8.204;2023-03-23T08:48:56;100190.19;;;14.79;100.00
49216;BME280;45943;53.148;8.204;2023-03-23T08:51:22;100185.31;;;14.91;100.00
49216;BME280;45943;53.148;8.204;2023-03-23T08:53:48;100183.63;;;14.98;100.00
49216;BME280;45943;53.148;8.204;2023-03-23T08:56:14;100190.91;;;15.06;100.00
49216;BME280;45943;53.148;8.204;2023-03-23T08:58:40;100184.97;;;15.18;100.00
49216;BME280;45943;53.148;8.204;2023-03-23T09:01:06;100194.09;;;15.17;100.00
49216;BME280;45943;53.148;8.204;2023-03-23T09:03:33;100191.22;;;15.11;100.00
49216;BME280;45943;53.148;8.204;2023-03-23T09:06:04;100188.69;;;15.09;100.00
49216;BME280;45943;53.148;8.204;2023-03-23T09:08:32;100189.53;;;15.18;100.00
49216;BME280;45943;53.148;8.204;2023-03-23T09:10:58;100191.72;;;15.31;100.00
49216;BME280;45943;53.148;8.204;2023-03-23T09:13:25;100193.41;;;15.24;100.00
49216;BME280;45943;53.148;8.204;2023-03-23T09:15:51;100192.91;;;15.28;100.00
49216;BME280;45943;53.148;8.204;2023-03-23T09:18:17;100198.13;;;15.30;100.00
49216;BME280;45943;53.148;8.204;2023-03-23T09:20:44;100187.69;;;15.35;100.00
49216;BME280;45943;53.148;8.204;2023-03-23T09:23:11;100199.66;;;15.08;100.00
49216;BME280;45943;53.148;8.204;2023-03-23T09:25:38;100195.44;;;15.21;100.00
49216;BME280;45943;53.148;8.204;2023-03-23T09:28:05;100211.31;;;15.33;100.00
49216;BME280;45943;53.148;8.204;2023-03-23T09:30:32;100195.78;;;15.35;100.00
49216;BME280;45943;53.148;8.204;2023-03-23T09:32:59;100182.59;;;15.40;100.00
49216;BME280;45943;53.148;8.204;2023-03-23T09:35:27;100195.63;;;15.44;100.00
49216;BME280;45943;53.148;8.204;2023-03-23T09:37:53;100203.19;;;15.41;100.00
49216;BME280;45943;53.148;8.204;2023-03-23T09:40:21;100204.22;;;15.32;100.00
49216;BME280;45943;53.148;8.204;2023-03-23T09:43:11;100202.56;;;15.14;100.00
49216;BME280;45943;53.148;8.204;2023-03-23T09:48:47;100233.25;;;15.21;100.00
49216;BME280;45943;53.148;8.204;2023-03-23T09:53:41;100220.59;;;15.30;100.00
49216;BME280;45943;53.148;8.204;2023-03-23T09:56:11;100213.16;;;15.40;100.00
49216;BME280;45943;53.148;8.204;2023-03-23T09:58:43;100221.28;;;15.48;100.00
49216;BME280;45943;53.148;8.204;2023-03-23T10:01:19;100224.50;;;15.36;100.00
49216;BME280;45943;53.148;8.204;2023-03-23T10:03:52;100228.88;;;15.29;100.00
49216;BME280;45943;53.148;8.204;2023-03-23T10:06:23;100230.88;;;15.43;100.00
49216;BME280;45943;53.148;8.204;2023-03-23T10:08:52;100242.06;;;15.48;100.00
49216;BME280;45943;53.148;8.204;2023-03-23T10:14:13;100254.22;;;15.36;100.00
49216;BME280;45943;53.148;8.204;2023-03-23T10:23:08;100255.06;;;15.44;100.00
49216;BME280;45943;53.148;8.204;2023-03-23T10:28:42;100239.34;;;15.32;100.00
49216;BME280;45943;53.148;8.204;2023-03-23T10:31:11;100246.75;;;15.13;100.00
49216;BME280;45943;53.148;8.204;2023-03-23T10:33:42;100259.09;;;15.16;100.00
49216;BME280;45943;53.148;8.204;2023-03-23T10:36:48;100273.78;;;15.21;100.00
49216;BME280;45943;53.148;8.204;2023-03-23T10:39:21;100267.56;;;15.29;100.00
49216;BME280;45943;53.148;8.204;2023-03-23T10:41:49;100245.09;;;15.29;100.00
49216;BME280;45943;53.148;8.204;2023-03-23T10:44:16;100237.84;;;15.29;100.00
49216;BME280;45943;53.148;8.204;2023-03-23T10:46:45;100265.72;;;15.46;100.00
49216;BME280;45943;53.148;8.204;2023-03-23T10:49:20;100258.75;;;15.60;100.00
49216;BME280;45943;53.148;8.204;2023-03-23T10:51:57;100271.78;;;15.48;100.00
49216;BME280;45943;53.148;8.204;2023-03-23T10:54:38;100263.84;;;15.46;100.00
49216;BME280;45943;53.148;8.204;2023-03-23T10:57:13;100253.22;;;15.37;100.00
49216;BME280;45943;53.148;8.204;2023-03-23T10:59:47;100251.88;;;15.25;100.00
49216;BME280;45943;53.148;8.204;2023-03-23T11:02:16;100249.81;;;15.43;100.00
49216;BME280;45943;53.148;8.204;2023-03-23T11:05:07;100263.84;;;15.55;100.00
49216;BME280;45943;53.148;8.204;2023-03-23T11:07:39;100262.16;;;15.45;100.00
49216;BME280;45943;53.148;8.204;2023-03-23T11:10:07;100266.41;;;15.64;100.00
49216;BME280;45943;53.148;8.204;2023-03-23T11:12:44;100271.78;;;15.72;100.00
49216;BME280;45943;53.148;8.204;2023-03-23T11:15:29;100265.03;;;15.85;100.00
49216;BME280;45943;53.148;8.204;2023-03-23T11:18:03;100263.28;;;16.08;100.00
49216;BME280;45943;53.148;8.204;2023-03-23T11:20:35;100264.41;;;16.22;100.00
49216;BME280;45943;53.148;8.204;2023-03-23T11:23:22;100259.38;;;16.11;100.00
49216;BME280;45943;53.148;8.204;2023-03-23T11:25:52;100251.91;;;16.21;100.00
49216;BME280;45943;53.148;8.204;2023-03-23T11:28:29;100254.22;;;16.32;100.00
49216;BME280;45943;53.148;8.204;2023-03-23T11:30:59;100249.78;;;16.47;100.00
49216;BME280;45943;53.148;8.204;2023-03-23T11:36:36;100263.06;;;16.73;100.00
49216;BME280;45943;53.148;8.204;2023-03-23T11:39:20;100259.84;;;16.61;100.00
49216;BME280;45943;53.148;8.204;2023-03-23T11:41:47;100263.47;;;16.54;100.00
49216;BME280;45943;53.148;8.204;2023-03-23T11:44:14;100255.47;;;16.60;100.00
49216;BME280;45943;53.148;8.204;2023-03-23T11:46:52;100269.00;;;16.69;100.00
49216;BME280;45943;53.148;8.204;2023-03-23T11:49:29;100258.59;;;16.80;100.00
49216;BME280;45943;53.148;8.204;2023-03-23T11:52:14;100242.59;;;17.39;100.00
49216;BME280;45943;53.148;8.204;2023-03-23T11:54:51;100244.81;;;17.82;100.00
49216;BME280;45943;53.148;8.204;2023-03-23T11:57:22;100237.25;;;17.92;100.00
49216;BME280;45943;53.148;8.204;2023-03-23T11:59:49;100245.94;;;18.02;100.00
49216;BME280;45943;53.148;8.204;2023-03-23T12:02:23;100256.72;;;18.40;100.00
49216;BME280;45943;53.148;8.204;2023-03-23T12:04:56;100270.94;;;18.71;100.00
49216;BME280;45943;53.148;8.204;2023-03-23T12:07:49;100244.63;;;18.72;100.00
49216;BME280;45943;53.148;8.204;2023-03-23T12:10:34;100255.38;;;18.65;99.88
49216;BME280;45943;53.148;8.204;2023-03-23T12:21:52;100253.50;;;17.54;100.00
49216;BME280;45943;53.148;8.204;2023-03-23T12:24:33;100257.50;;;17.43;100.00
49216;BME280;45943;53.148;8.204;2023-03-23T12:27:27;100257.34;;;17.83;100.00
49216;BME280;45943;53.148;8.204;2023-03-23T12:30:55;100264.38;;;17.92;100.00
49216;BME280;45943;53.148;8.204;2023-03-23T12:33:13;100272.44;;;18.00;100.00
49216;BME280;45943;53.148;8.204;2023-03-23T12:39:29;100280.34;;;17.72;100.00
49216;BME280;45943;53.148;8.204;2023-03-23T12:41:44;100266.44;;;18.04;100.00
49216;BME280;45943;53.148;8.204;2023-03-23T12:44:27;100267.00;;;18.59;100.00
49216;BME280;45943;53.148;8.204;2023-03-23T12:49:55;100253.13;;;18.54;84.67
49216;BME280;45943;53.148;8.204;2023-03-23T12:52:28;100261.47;;;18.08;81.03
49216;BME280;45943;53.148;8.204;2023-03-23T12:54:59;100258.56;;;17.95;88.82
49216;BME280;45943;53.148;8.204;2023-03-23T12:57:35;100249.50;;;18.17;90.11
49216;BME280;45943;53.148;8.204;2023-03-23T13:01:14;100260.53;;;18.45;87.79
49216;BME280;45943;53.148;8.204;2023-03-23T13:06:12;100245.25;;;18.74;83.49
49216;BME280;45943;53.148;8.204;2023-03-23T13:08:44;100252.75;;;18.72;81.72
49216;BME280;45943;53.148;8.204;2023-03-23T13:11:19;100247.25;;;18.65;80.52
49216;BME280;45943;53.148;8.204;2023-03-23T13:13:59;100255.78;;;18.98;78.80
49216;BME280;45943;53.148;8.204;2023-03-23T13:17:20;100262.31;;;19.46;77.37
49216;BME280;45943;53.148;8.204;2023-03-23T13:19:47;100255.53;;;19.14;77.47
49216;BME280;45943;53.148;8.204;2023-03-23T13:22:44;100255.56;;;19.57;73.29
49216;BME280;45943;53.148;8.204;2023-03-23T13:25:31;100256.25;;;19.94;72.88
49216;BME280;45943;53.148;8.204;2023-03-23T13:28:12;100252.00;;;19.85;70.02
49216;BME280;45943;53.148;8.204;2023-03-23T13:30:41;100256.94;;;20.02;64.89
49216;BME280;45943;53.148;8.204;2023-03-23T13:33:19;100253.78;;;20.33;65.74
49216;BME280;45943;53.148;8.204;2023-03-23T13:35:46;100255.41;;;20.62;62.51
49216;BME280;45943;53.148;8.204;2023-03-23T13:38:26;100254.13;;;20.17;63.05
49216;BME280;45943;53.148;8.204;2023-03-23T13:40:55;100256.00;;;20.17;64.78
49216;BME280;45943;53.148;8.204;2023-03-23T13:43:29;100247.84;;;20.58;67.84
49216;BME280;45943;53.148;8.204;2023-03-23T13:46:11;100256.13;;;20.78;65.92
49216;BME280;45943;53.148;8.204;2023-03-23T13:51:25;100260.56;;;20.44;59.32
49216;BME280;45943;53.148;8.204;2023-03-23T13:59:35;100266.69;;;20.18;62.72
49216;BME280;45943;53.148;8.204;2023-03-23T14:11:13;100262.47;;;19.60;67.65